sensor_id;sensor_type;location;lat;lon;timestamp;temperature;humidity
35668;DHT22;22158;59.280;17.806;2023-04-04T05:02:36;-3.80;99.90
35668;DHT22;22158;59.280;17.806;2023-04-04T05:05:02;-3.70;99.90
35668;DHT22;22158;59.280;17.806;2023-04-04T05:07:27;-3.70;99.90
35668;DHT22;22158;59.280;17.806;2023-04-04T05:09:53;-3.60;99.90
35668;DHT22;22158;59.280;17.806;2023-04-04T05:12:18;-3.50;99.90
35668;DHT22;22158;59.280;17.806;2023-04-04T05:14:44;-3.40;99.90
35668;DHT22;22158;59.280;17.806;2023-04-04T05:17:10;-3.30;99.90
35668;DHT22;22158;59.280;17.806;2023-04-04T05:19:35;-3.20;99.90
35668;DHT22;22158;59.280;17.806;2023-04-04T05:22:01;-3.10;99.90
35668;DHT22;22158;59.280;17.806;2023-04-04T05:24:27;-3.10;99.90
35668;DHT22;22158;59.280;17.806;2023-04-04T05:26:53;-3.00;99.90
35668;DHT22;22158;59.280;17.806;2023-04-04T05:29:18;-2.90;99.90
35668;DHT22;22158;59.280;17.806;2023-04-04T05:31:44;-2.80;99.90
35668;DHT22;22158;59.280;17.806;2023-04-04T05:34:09;-2.80;99.90
35668;DHT22;22158;59.280;17.806;2023-04-04T05:36:36;-2.70;99.90
35668;DHT22;22158;59.280;17.806;2023-04-04T05:39:02;-2.60;99.90
35668;DHT22;22158;59.280;17.806;2023-04-04T05:41:29;-2.50;99.90
35668;DHT22;22158;59.280;17.806;2023-04-04T05:43:55;-2.40;99.90
35668;DHT22;22158;59.280;17.806;2023-04-04T05:46:21;-2.40;99.90
35668;DHT22;22158;59.280;17.806;2023-04-04T05:48:47;-2.30;99.90
35668;DHT22;22158;59.280;17.806;2023-04-04T05:51:12;-2.20;99.90
35668;DHT22;22158;59.280;17.806;2023-04-04T05:53:38;-2.20;99.90
35668;DHT22;22158;59.280;17.806;2023-04-04T05:56:03;-2.20;99.90
35668;DHT22;22158;59.280;17.806;2023-04-04T05:58:29;-2.10;99.90
35668;DHT22;22158;59.280;17.806;2023-04-04T06:00:54;-2.00;99.90
35668;DHT22;22158;59.280;17.806;2023-04-04T06:03:20;-1.90;99.90
35668;DHT22;22158;59.280;17.806;2023-04-04T06:05:52;-1.80;99.90
35668;DHT22;22158;59.280;17.806;2023-04-04T06:08:18;-1.70;99.90
35668;DHT22;22158;59.280;17.806;2023-04-04T06:10:43;-1.60;99.90
35668;DHT22;22158;59.280;17.806;2023-04-04T06:13:09;-1.50;99.90
35668;DHT22;22158;59.280;17.806;2023-04-04T06:15:34;-1.40;99.90
35668;DHT22;22158;59.280;17.806;2023-04-04T06:18:00;-1.30;99.90
35668;DHT22;22158;59.280;17.806;2023-04-04T06:20:26;-1.30;99.90
35668;DHT22;22158;59.280;17.806;2023-04-04T06:22:51;-1.20;99.90
35668;DHT22;22158;59.280;17.806;2023-04-04T06:25:17;-1.10;99.90
35668;DHT22;22158;59.280;17.806;2023-04-04T06:27:43;-1.00;99.90
35668;DHT22;22158;59.280;17.806;2023-04-04T06:30:09;-0.90;99.90
35668;DHT22;22158;59.280;17.806;2023-04-04T06:32:35;-0.90;99.90
35668;DHT22;22158;59.280;17.806;2023-04-04T06:35:01;-0.80;99.90
35668;DHT22;22158;59.280;17.806;2023-04-04T06:37:26;-0.80;99.90
35668;DHT22;22158;59.280;17.806;2023-04-04T06:39:52;-0.70;99.90
35668;DHT22;22158;59.280;17.806;2023-04-04T06:42:18;-0.60;99.90
35668;DHT22;22158;59.280;17.806;2023-04-04T06:44:43;-0.60;99.90
35668;DHT22;22158;59.280;17.806;2023-04-04T06:47:09;-0.50;99.90
35668;DHT22;22158;59.280;17.806;2023-04-04T06:49:35;-0.50;99.90
35668;DHT22;22158;59.280;17.806;2023-04-04T06:52:00;-0.40;99.90
35668;DHT22;22158;59.280;17.806;2023-04-04T06:54:26;-0.30;99.90
35668;DHT22;22158;59.280;17.806;2023-04-04T06:56:51;-0.30;99.90
35668;DHT22;22158;59.280;17.806;2023-04-04T06:59:17;-0.20;99.90
35668;DHT22;22158;59.280;17.806;2023-04-04T07:01:43;-0.10;99.90
35668;DHT22;22158;59.280;17.806;2023-04-04T07:04:09;0.00;99.90
35668;DHT22;22158;59.280;17.806;2023-04-04T07:06:35;0.00;99.90
35668;DHT22;22158;59.280;17.806;2023-04-04T07:09:00;0.10;99.90
35668;DHT22;22158;59.280;17.806;2023-04-04T07:11:27;0.20;99.90
35668;DHT22;22158;59.280;17.806;2023-04-04T07:13:53;0.20;99.90
35668;DHT22;22158;59.280;17.806;2023-04-04T07:16:19;0.20;99.90
35668;DHT22;22158;59.280;17.806;2023-04-04T07:18:45;0.30;99.90
35668;DHT22;22158;59.280;17.806;2023-04-04T07:21:11;0.20;99.90
35668;DHT22;22158;59.280;17.806;2023-04-04T07:23:37;0.20;99.90
35668;DHT22;22158;59.280;17.806;2023-04-04T07:26:03;0.30;99.90
35668;DHT22;22158;59.280;17.806;2023-04-04T07:28:29;0.30;99.90
35668;DHT22;22158;59.280;17.806;2023-04-04T07:30:58;0.30;99.90
35668;DHT22;22158;59.280;17.806;2023-04-04T07:33:24;0.20;99.90
35668;DHT22;22158;59.280;17.806;2023-04-04T07:35:50;0.20;99.90
35668;DHT22;22158;59.280;17.806;2023-04-04T07:38:16;0.30;99.90
35668;DHT22;22158;59.280;17.806;2023-04-04T07:40:41;0.40;99.90
35668;DHT22;22158;59.280;17.806;2023-04-04T07:43:07;0.40;99.90
35668;DHT22;22158;59.280;17.806;2023-04-04T07:45:33;0.50;99.90
35668;DHT22;22158;59.280;17.806;2023-04-04T07:47:58;0.60;99.90
35668;DHT22;22158;59.280;17.806;2023-04-04T07:50:24;0.70;99.90
35668;DHT22;22158;59.280;17.806;2023-04-04T07:52:49;0.80;99.90
35668;DHT22;22158;59.280;17.806;2023-04-04T07:55:20;1.00;99.90
35668;DHT22;22158;59.280;17.806;2023-04-04T07:57:46;1.20;99.90
35668;DHT22;22158;59.280;17.806;2023-04-04T08:00:12;1.20;99.90
35668;DHT22;22158;59.280;17.806;2023-04-04T08:02:38;1.20;99.90
35668;DHT22;22158;59.280;17.806;2023-04-04T08:05:04;1.30;99.90
35668;DHT22;22158;59.280;17.806;2023-04-04T08:07:30;1.40;99.90
35668;DHT22;22158;59.280;17.806;2023-04-04T08:09:56;1.40;99.90
35668;DHT22;22158;59.280;17.806;2023-04-04T08:12:21;1.50;99.90
35668;DHT22;22158;59.280;17.806;2023-04-04T08:14:47;1.50;99.90
35668;DHT22;22158;59.280;17.806;2023-04-04T08:17:13;1.50;99.90
35668;DHT22;22158;59.280;17.806;2023-04-04T08:19:43;1.50;99.90
35668;DHT22;22158;59.280;17.806;2023-04-04T08:22:08;1.40;99.90
35668;DHT22;22158;59.280;17.806;2023-04-04T08:24:34;1.40;99.90
35668;DHT22;22158;59.280;17.806;2023-04-04T08:27:01;1.50;99.90
35668;DHT22;22158;59.280;17.806;2023-04-04T08:29:26;1.70;99.90
35668;DHT22;22158;59.280;17.806;2023-04-04T08:31:53;1.70;99.90
35668;DHT22;22158;59.280;17.806;2023-04-04T08:34:18;1.80;99.90
35668;DHT22;22158;59.280;17.806;2023-04-04T08:36:45;1.80;99.90
35668;DHT22;22158;59.280;17.806;2023-04-04T08:39:11;1.80;99.90
35668;DHT22;22158;59.280;17.806;2023-04-04T08:41:37;1.80;99.90
35668;DHT22;22158;59.280;17.806;2023-04-04T08:44:04;1.90;99.90
35668;DHT22;22158;59.280;17.806;2023-04-04T08:46:31;2.00;99.90
35668;DHT22;22158;59.280;17.806;2023-04-04T08:48:57;2.00;99.90
35668;DHT22;22158;59.280;17.806;2023-04-04T08:51:25;2.10;99.90
35668;DHT22;22158;59.280;17.806;2023-04-04T08:53:54;2.10;99.90
35668;DHT22;22158;59.280;17.806;2023-04-04T08:56:21;2.10;99.90
35668;DHT22;22158;59.280;17.806;2023-04-04T08:58:47;2.30;99.90
35668;DHT22;22158;59.280;17.806;2023-04-04T09:01:12;2.30;99.90
35668;DHT22;22158;59.280;17.806;2023-04-04T09:03:39;2.40;99.90
35668;DHT22;22158;59.280;17.806;2023-04-04T09:06:06;2.40;99.90
35668;DHT22;22158;59.280;17.806;2023-04-04T09:08:33;2.40;99.90
35668;DHT22;22158;59.280;17.806;2023-04-04T09:11:01;2.50;99.90
35668;DHT22;22158;59.280;17.806;2023-04-04T09:13:27;2.50;99.90
35668;DHT22;22158;59.280;17.806;2023-04-04T09:15:54;2.60;99.90
35668;DHT22;22158;59.280;17.806;2023-04-04T09:18:22;2.70;99.90
35668;DHT22;22158;59.280;17.806;2023-04-04T09:20:48;2.70;99.30
35668;DHT22;22158;59.280;17.806;2023-04-04T09:23:18;2.70;99.40
35668;DHT22;22158;59.280;17.806;2023-04-04T09:25:54;2.70;99.10
35668;DHT22;22158;59.280;17.806;2023-04-04T09:28:21;2.70;99.30
35668;DHT22;22158;59.280;17.806;2023-04-04T09:30:51;2.80;99.00
35668;DHT22;22158;59.280;17.806;2023-04-04T09:33:17;2.90;98.00
35668;DHT22;22158;59.280;17.806;2023-04-04T09:35:45;2.90;97.60
35668;DHT22;22158;59.280;17.806;2023-04-04T09:38:14;3.00;97.50
35668;DHT22;22158;59.280;17.806;2023-04-04T09:40:41;3.10;97.00
35668;DHT22;22158;59.280;17.806;2023-04-04T09:43:09;3.10;96.20
35668;DHT22;22158;59.280;17.806;2023-04-04T09:45:39;3.20;95.70
35668;DHT22;22158;59.280;17.806;2023-04-04T09:48:07;3.30;96.20
35668;DHT22;22158;59.280;17.806;2023-04-04T09:50:36;3.30;96.50
35668;DHT22;22158;59.280;17.806;2023-04-04T09:53:01;3.40;96.10
35668;DHT22;22158;59.280;17.806;2023-04-04T09:55:36;3.30;95.30
35668;DHT22;22158;59.280;17.806;2023-04-04T09:58:11;3.50;95.40
35668;DHT22;22158;59.280;17.806;2023-04-04T10:00:39;3.60;95.00
35668;DHT22;22158;59.280;17.806;2023-04-04T10:03:07;3.70;95.00
35668;DHT22;22158;59.280;17.806;2023-04-04T10:05:33;3.90;94.30
35668;DHT22;22158;59.280;17.806;2023-04-04T10:07:59;4.00;94.50
35668;DHT22;22158;59.280;17.806;2023-04-04T10:10:29;4.00;93.70
35668;DHT22;22158;59.280;17.806;2023-04-04T10:12:58;4.00;93.70
35668;DHT22;22158;59.280;17.806;2023-04-04T10:15:34;4.20;93.90
35668;DHT22;22158;59.280;17.806;2023-04-04T10:18:02;4.30;93.80
35668;DHT22;22158;59.280;17.806;2023-04-04T10:20:29;4.50;93.40
35668;DHT22;22158;59.280;17.806;2023-04-04T10:22:56;4.50;94.30
35668;DHT22;22158;59.280;17.806;2023-04-04T10:25:23;4.50;93.30
35668;DHT22;22158;59.280;17.806;2023-04-04T10:27:48;4.50;92.50
35668;DHT22;22158;59.280;17.806;2023-04-04T10:30:14;4.50;93.40
35668;DHT22;22158;59.280;17.806;2023-04-04T10:33:00;4.60;92.70
35668;DHT22;22158;59.280;17.806;2023-04-04T10:35:26;4.40;91.30
35668;DHT22;22158;59.280;17.806;2023-04-04T10:37:58;4.20;91.20
35668;DHT22;22158;59.280;17.806;2023-04-04T10:40:30;4.40;92.10
35668;DHT22;22158;59.280;17.806;2023-04-04T10:43:01;4.40;92.20
35668;DHT22;22158;59.280;17.806;2023-04-04T10:45:28;4.40;91.80
35668;DHT22;22158;59.280;17.806;2023-04-04T10:47:56;4.40;91.70
35668;DHT22;22158;59.280;17.806;2023-04-04T10:50:22;4.50;91.40
35668;DHT22;22158;59.280;17.806;2023-04-04T10:52:49;4.50;90.60
35668;DHT22;22158;59.280;17.806;2023-04-04T10:55:15;4.60;91.00
35668;DHT22;22158;59.280;17.806;2023-04-04T10:57:51;4.90;92.20
35668;DHT22;22158;59.280;17.806;2023-04-04T11:00:20;5.00;90.40
35668;DHT22;22158;59.280;17.806;2023-04-04T11:02:58;5.10;89.80
35668;DHT22;22158;59.280;17.806;2023-04-04T11:05:25;5.00;87.70
35668;DHT22;22158;59.280;17.806;2023-04-04T11:08:03;5.10;88.50
35668;DHT22;22158;59.280;17.806;2023-04-04T11:10:31;5.00;86.30
35668;DHT22;22158;59.280;17.806;2023-04-04T11:13:00;4.90;84.70
35668;DHT22;22158;59.280;17.806;2023-04-04T11:21:19;5.20;90.30
35668;DHT22;22158;59.280;17.806;2023-04-04T11:26:36;5.60;90.70
35668;DHT22;22158;59.280;17.806;2023-04-04T11:29:05;5.70;89.50
35668;DHT22;22158;59.280;17.806;2023-04-04T11:31:41;5.80;87.30
35668;DHT22;22158;59.280;17.806;2023-04-04T11:34:11;5.90;87.90
35668;DHT22;22158;59.280;17.806;2023-04-04T11:39:14;5.90;84.40
35668;DHT22;22158;59.280;17.806;2023-04-04T11:42:06;6.00;86.70
35668;DHT22;22158;59.280;17.806;2023-04-04T11:47:13;6.10;84.00
35668;DHT22;22158;59.280;17.806;2023-04-04T11:49:42;6.00;82.70
35668;DHT22;22158;59.280;17.806;2023-04-04T11:52:09;6.00;84.60
35668;DHT22;22158;59.280;17.806;2023-04-04T11:54:36;6.10;86.00
35668;DHT22;22158;59.280;17.806;2023-04-04T11:57:04;6.10;85.90
35668;DHT22;22158;59.280;17.806;2023-04-04T11:59:30;6.20;85.40
35668;DHT22;22158;59.280;17.806;2023-04-04T12:01:56;6.30;83.10
35668;DHT22;22158;59.280;17.806;2023-04-04T12:04:24;6.20;86.80
35668;DHT22;22158;59.280;17.806;2023-04-04T12:06:53;6.40;85.40
35668;DHT22;22158;59.280;17.806;2023-04-04T12:09:19;6.50;86.40
35668;DHT22;22158;59.280;17.806;2023-04-04T12:11:47;6.60;84.50
35668;DHT22;22158;59.280;17.806;2023-04-04T12:14:20;6.70;85.70
35668;DHT22;22158;59.280;17.806;2023-04-04T12:16:51;6.70;85.90
35668;DHT22;22158;59.280;17.806;2023-04-04T12:19:17;6.90;82.60
35668;DHT22;22158;59.280;17.806;2023-04-04T12:21:43;7.00;82.90
35668;DHT22;22158;59.280;17.806;2023-04-04T12:24:10;7.00;81.40
35668;DHT22;22158;59.280;17.806;2023-04-04T12:26:41;7.00;82.60
35668;DHT22;22158;59.280;17.806;2023-04-04T12:29:08;7.00;79.90
35668;DHT22;22158;59.280;17.806;2023-04-04T12:31:37;7.10;83.20
35668;DHT22;22158;59.280;17.806;2023-04-04T12:34:03;7.10;79.90
35668;DHT22;22158;59.280;17.806;2023-04-04T12:36:29;7.30;80.60
35668;DHT22;22158;59.280;17.806;2023-04-04T12:39:06;7.40;77.30
35668;DHT22;22158;59.280;17.806;2023-04-04T12:41:33;7.50;77.30
35668;DHT22;22158;59.280;17.806;2023-04-04T12:44:04;7.50;79.00
35668;DHT22;22158;59.280;17.806;2023-04-04T12:46:37;7.50;75.50
35668;DHT22;22158;59.280;17.806;2023-04-04T12:49:14;7.10;75.90
35668;DHT22;22158;59.280;17.806;2023-04-04T12:51:39;7.00;74.20
35668;DHT22;22158;59.280;17.806;2023-04-04T12:54:06;6.90;75.90
35668;DHT22;22158;59.280;17.806;2023-04-04T12:56:34;6.90;77.90
35668;DHT22;22158;59.280;17.806;2023-04-04T12:59:01;6.80;78.90
35668;DHT22;22158;59.280;17.806;2023-04-04T13:01:30;6.70;79.70
35668;DHT22;22158;59.280;17.806;2023-04-04T13:04:01;6.50;77.30
35668;DHT22;22158;59.280;17.806;2023-04-04T13:06:30;6.30;77.70
35668;DHT22;22158;59.280;17.806;2023-04-04T13:08:57;6.20;78.10
35668;DHT22;22158;59.280;17.806;2023-04-04T13:11:23;6.20;78.10
35668;DHT22;22158;59.280;17.806;2023-04-04T13:14:01;6.10;78.80
35668;DHT22;22158;59.280;17.806;2023-04-04T13:16:32;5.90;77.20
35668;DHT22;22158;59.280;17.806;2023-04-04T13:18:58;5.80;79.20
35668;DHT22;22158;59.280;17.806;2023-04-04T13:21:25;5.70;79.10
35668;DHT22;22158;59.280;17.806;2023-04-04T13:23:51;5.70;78.80
35668;DHT22;22158;59.280;17.806;2023-04-04T13:26:17;5.70;79.50
35668;DHT22;22158;59.280;17.806;2023-04-04T13:28:42;5.70;80.60
35668;DHT22;22158;59.280;17.806;2023-04-04T13:31:08;5.60;79.30
35668;DHT22;22158;59.280;17.806;2023-04-04T13:33:38;5.50;80.50
35668;DHT22;22158;59.280;17.806;2023-04-04T13:36:05;5.50;79.90
35668;DHT22;22158;59.280;17.806;2023-04-04T13:38:30;5.50;81.60
35668;DHT22;22158;59.280;17.806;2023-04-04T13:40:57;5.50;79.30
35668;DHT22;22158;59.280;17.806;2023-04-04T13:43:23;5.50;79.80
35668;DHT22;22158;59.280;17.806;2023-04-04T13:45:48;5.50;81.10
35668;DHT22;22158;59.280;17.806;2023-04-04T13:48:14;5.60;77.60
35668;DHT22;22158;59.280;17.806;2023-04-04T13:50:43;5.60;79.80
35668;DHT22;22158;59.280;17.806;2023-04-04T13:53:09;5.60;80.10
35668;DHT22;22158;59.280;17.806;2023-04-04T13:55:36;5.60;79.90
35668;DHT22;22158;59.280;17.806;2023-04-04T13:58:01;5.50;81.00
35668;DHT22;22158;59.280;17.806;2023-04-04T14:00:27;5.50;80.40
35668;DHT22;22158;59.280;17.806;2023-04-04T14:02:54;5.50;80.50
35668;DHT22;22158;59.280;17.806;2023-04-04T14:05:21;5.50;80.40
35668;DHT22;22158;59.280;17.806;2023-04-04T14:07:47;5.50;80.20
35668;DHT22;22158;59.280;17.806;2023-04-04T14:10:12;5.60;79.70
35668;DHT22;22158;59.280;17.806;2023-04-04T14:12:38;5.60;84.00
35668;DHT22;22158;59.280;17.806;2023-04-04T14:15:04;5.60;85.00
35668;DHT22;22158;59.280;17.806;2023-04-04T14:17:32;5.70;84.00
35668;DHT22;22158;59.280;17.806;2023-04-04T14:19:57;5.80;83.90
35668;DHT22;22158;59.280;17.806;2023-04-04T14:22:23;5.70;85.30
35668;DHT22;22158;59.280;17.806;2023-04-04T14:24:48;5.80;85.00
35668;DHT22;22158;59.280;17.806;2023-04-04T14:27:14;5.70;85.10
35668;DHT22;22158;59.280;17.806;2023-04-04T14:29:40;5.70;86.40
35668;DHT22;22158;59.280;17.806;2023-04-04T14:32:05;5.60;85.90
35668;DHT22;22158;59.280;17.806;2023-04-04T14:34:31;5.50;87.20
35668;DHT22;22158;59.280;17.806;2023-04-04T14:36:57;5.60;85.60
35668;DHT22;22158;59.280;17.806;2023-04-04T14:39:23;5.50;85.10
35668;DHT22;22158;59.280;17.806;2023-04-04T14:41:48;5.60;85.30
35668;DHT22;22158;59.280;17.806;2023-04-04T14:44:14;5.60;86.80
35668;DHT22;22158;59.280;17.806;2023-04-04T14:46:40;5.60;85.70
35668;DHT22;22158;59.280;17.806;2023-04-04T14:49:06;5.40;85.50
35668;DHT22;22158;59.280;17.806;2023-04-04T14:51:32;5.40;83.00
35668;DHT22;22158;59.280;17.806;2023-04-04T14:53:58;5.40;83.00
35668;DHT22;22158;59.280;17.806;2023-04-04T14:56:24;5.50;83.00
35668;DHT22;22158;59.280;17.806;2023-04-04T14:58:50;5.40;81.70
35668;DHT22;22158;59.280;17.806;2023-04-04T15:01:16;5.40;83.80
35668;DHT22;22158;59.280;17.806;2023-04-04T15:03:42;5.40;84.50
35668;DHT22;22158;59.280;17.806;2023-04-04T15:06:07;5.30;83.60
35668;DHT22;22158;59.280;17.806;2023-04-04T15:08:33;5.30;81.70
35668;DHT22;22158;59.280;17.806;2023-04-04T15:11:02;5.30;82.80
35668;DHT22;22158;59.280;17.806;2023-04-04T15:13:27;5.30;84.00
35668;DHT22;22158;59.280;17.806;2023-04-04T15:15:53;5.30;83.80
35668;DHT22;22158;59.280;17.806;2023-04-04T15:18:18;5.30;83.40
35668;DHT22;22158;59.280;17.806;2023-04-04T15:20:44;5.20;85.10
35668;DHT22;22158;59.280;17.806;2023-04-04T15:23:10;5.00;83.30
35668;DHT22;22158;59.280;17.806;2023-04-04T15:25:35;5.00;84.80
35668;DHT22;22158;59.280;17.806;2023-04-04T15:28:01;5.10;83.10
35668;DHT22;22158;59.280;17.806;2023-04-04T15:30:27;5.00;82.80
35668;DHT22;22158;59.280;17.806;2023-04-04T15:32:54;5.00;84.10
35668;DHT22;22158;59.280;17.806;2023-04-04T15:35:21;4.90;83.90
35668;DHT22;22158;59.280;17.806;2023-04-04T15:37:46;4.90;84.30
35668;DHT22;22158;59.280;17.806;2023-04-04T15:40:14;4.80;84.90
35668;DHT22;22158;59.280;17.806;2023-04-04T15:42:40;4.80;85.10
35668;DHT22;22158;59.280;17.806;2023-04-04T15:45:06;4.70;84.50
35668;DHT22;22158;59.280;17.806;2023-04-04T15:47:33;4.70;85.50
35668;DHT22;22158;59.280;17.806;2023-04-04T15:49:58;4.80;86.10
35668;DHT22;22158;59.280;17.806;2023-04-04T15:52:24;4.80;86.80
35668;DHT22;22158;59.280;17.806;2023-04-04T15:54:50;4.80;86.50
35668;DHT22;22158;59.280;17.806;2023-04-04T15:57:15;4.80;86.10
35668;DHT22;22158;59.280;17.806;2023-04-04T15:59:41;4.80;86.80
35668;DHT22;22158;59.280;17.806;2023-04-04T16:02:06;4.80;87.60
35668;DHT22;22158;59.280;17.806;2023-04-04T16:04:32;4.90;87.20
35668;DHT22;22158;59.280;17.806;2023-04-04T16:06:58;4.90;86.20
35668;DHT22;22158;59.280;17.806;2023-04-04T16:09:23;4.90;86.50
35668;DHT22;22158;59.280;17.806;2023-04-04T16:11:49;4.90;86.50
35668;DHT22;22158;59.280;17.806;2023-04-04T16:14:15;4.90;86.40
35668;DHT22;22158;59.280;17.806;2023-04-04T16:16:41;4.80;86.50
35668;DHT22;22158;59.280;17.806;2023-04-04T16:19:06;4.70;86.40
35668;DHT22;22158;59.280;17.806;2023-04-04T16:21:32;4.70;86.50
35668;DHT22;22158;59.280;17.806;2023-04-04T16:23:58;4.70;88.20
35668;DHT22;22158;59.280;17.806;2023-04-04T16:26:24;4.60;87.60
35668;DHT22;22158;59.280;17.806;2023-04-04T16:28:50;4.50;87.10
35668;DHT22;22158;59.280;17.806;2023-04-04T16:31:15;4.50;88.50
35668;DHT22;22158;59.280;17.806;2023-04-04T16:33:41;4.60;88.20
35668;DHT22;22158;59.280;17.806;2023-04-04T16:36:07;4.60;88.90
35668;DHT22;22158;59.280;17.806;2023-04-04T16:38:33;4.60;87.80
35668;DHT22;22158;59.280;17.806;2023-04-04T16:40:59;4.70;88.30
35668;DHT22;22158;59.280;17.806;2023-04-04T16:43:26;4.60;87.70
35668;DHT22;22158;59.280;17.806;2023-04-04T16:45:52;4.60;89.00
35668;DHT22;22158;59.280;17.806;2023-04-04T16:48:18;4.50;88.80
35668;DHT22;22158;59.280;17.806;2023-04-04T16:50:43;4.50;89.00
35668;DHT22;22158;59.280;17.806;2023-04-04T16:53:09;4.40;88.90
35668;DHT22;22158;59.280;17.806;2023-04-04T16:55:35;4.30;89.10
35668;DHT22;22158;59.280;17.806;2023-04-04T16:58:01;4.30;89.40
35668;DHT22;22158;59.280;17.806;2023-04-04T17:00:26;4.10;90.00
35668;DHT22;22158;59.280;17.806;2023-04-04T17:02:52;4.00;90.30
35668;DHT22;22158;59.280;17.806;2023-04-04T17:05:17;4.00;90.50
35668;DHT22;22158;59.280;17.806;2023-04-04T17:07:43;3.90;90.70
35668;DHT22;22158;59.280;17.806;2023-04-04T17:10:10;3.90;90.80
35668;DHT22;22158;59.280;17.806;2023-04-04T17:12:35;3.80;90.90
35668;DHT22;22158;59.280;17.806;2023-04-04T17:15:02;3.80;91.20
35668;DHT22;22158;59.280;17.806;2023-04-04T17:17:29;3.70;91.30
35668;DHT22;22158;59.280;17.806;2023-04-04T17:19:54;3.70;91.30
35668;DHT22;22158;59.280;17.806;2023-04-04T17:22:20;3.60;91.30
35668;DHT22;22158;59.280;17.806;2023-04-04T17:24:46;3.50;91.50
35668;DHT22;22158;59.280;17.806;2023-04-04T17:27:12;3.40;91.70
35668;DHT22;22158;59.280;17.806;2023-04-04T17:29:38;3.30;92.10
35668;DHT22;22158;59.280;17.806;2023-04-04T17:32:04;3.20;92.20
35668;DHT22;22158;59.280;17.806;2023-04-04T17:34:29;3.20;92.40
35668;DHT22;22158;59.280;17.806;2023-04-04T17:36:55;3.10;92.60
35668;DHT22;22158;59.280;17.806;2023-04-04T17:39:22;3.00;92.60
35668;DHT22;22158;59.280;17.806;2023-04-04T17:41:47;2.90;92.80
35668;DHT22;22158;59.280;17.806;2023-04-04T17:44:17;2.90;92.90
35668;DHT22;22158;59.280;17.806;2023-04-04T17:46:43;2.70;93.20
35668;DHT22;22158;59.280;17.806;2023-04-04T17:49:09;2.70;93.60
35668;DHT22;22158;59.280;17.806;2023-04-04T17:51:35;2.60;93.90
35668;DHT22;22158;59.280;17.806;2023-04-04T17:54:02;2.50;94.10
35668;DHT22;22158;59.280;17.806;2023-04-04T17:56:27;2.40;94.10
35668;DHT22;22158;59.280;17.806;2023-04-04T17:58:54;2.40;94.20
35668;DHT22;22158;59.280;17.806;2023-04-04T18:01:21;2.30;94.50
35668;DHT22;22158;59.280;17.806;2023-04-04T18:03:47;2.20;94.90
35668;DHT22;22158;59.280;17.806;2023-04-04T18:06:13;2.10;94.90
35668;DHT22;22158;59.280;17.806;2023-04-04T18:08:39;2.10;95.40
35668;DHT22;22158;59.280;17.806;2023-04-04T18:11:05;2.10;95.60
35668;DHT22;22158;59.280;17.806;2023-04-04T18:13:32;2.00;96.10
35668;DHT22;22158;59.280;17.806;2023-04-04T18:15:58;1.90;96.20
35668;DHT22;22158;59.280;17.806;2023-04-04T18:18:27;1.90;96.00
35668;DHT22;22158;59.280;17.806;2023-04-04T18:20:52;1.80;96.20
35668;DHT22;22158;59.280;17.806;2023-04-04T18:23:19;1.70;96.40
35668;DHT22;22158;59.280;17.806;2023-04-04T18:25:44;1.70;96.90
35668;DHT22;22158;59.280;17.806;2023-04-04T18:28:10;1.60;97.10
35668;DHT22;22158;59.280;17.806;2023-04-04T18:30:36;1.50;97.40
35668;DHT22;22158;59.280;17.806;2023-04-04T18:33:02;1.30;98.20
35668;DHT22;22158;59.280;17.806;2023-04-04T18:35:28;1.20;98.60
35668;DHT22;22158;59.280;17.806;2023-04-04T18:37:53;1.20;98.80
35668;DHT22;22158;59.280;17.806;2023-04-04T18:42:51;1.00;99.40
35668;DHT22;22158;59.280;17.806;2023-04-04T18:45:16;1.00;99.90
35668;DHT22;22158;59.280;17.806;2023-04-04T18:47:42;0.90;99.90
35668;DHT22;22158;59.280;17.806;2023-04-04T18:50:08;0.90;99.90
35668;DHT22;22158;59.280;17.806;2023-04-04T18:52:34;0.80;99.90
35668;DHT22;22158;59.280;17.806;2023-04-04T18:55:01;0.70;99.90
35668;DHT22;22158;59.280;17.806;2023-04-04T18:57:27;0.70;99.90
35668;DHT22;22158;59.280;17.806;2023-04-04T18:59:52;0.60;99.90
35668;DHT22;22158;59.280;17.806;2023-04-04T19:02:18;0.60;99.90
35668;DHT22;22158;59.280;17.806;2023-04-04T19:04:45;0.50;99.90
35668;DHT22;22158;59.280;17.806;2023-04-04T19:07:14;0.50;99.90
35668;DHT22;22158;59.280;17.806;2023-04-04T19:09:41;0.40;99.90
35668;DHT22;22158;59.280;17.806;2023-04-04T19:12:08;0.40;99.90
35668;DHT22;22158;59.280;17.806;2023-04-04T19:14:34;0.30;99.90
35668;DHT22;22158;59.280;17.806;2023-04-04T19:16:59;0.30;99.90
35668;DHT22;22158;59.280;17.806;2023-04-04T19:19:25;0.20;99.90
35668;DHT22;22158;59.280;17.806;2023-04-04T19:21:51;0.20;99.90
35668;DHT22;22158;59.280;17.806;2023-04-04T19:24:16;0.10;99.90
35668;DHT22;22158;59.280;17.806;2023-04-04T19:26:42;0.20;99.90
35668;DHT22;22158;59.280;17.806;2023-04-04T19:29:08;0.10;99.90
35668;DHT22;22158;59.280;17.806;2023-04-04T19:31:33;0.00;99.90
35668;DHT22;22158;59.280;17.806;2023-04-04T19:34:00;0.00;99.90
35668;DHT22;22158;59.280;17.806;2023-04-04T19:36:35;-0.10;99.90
35668;DHT22;22158;59.280;17.806;2023-04-04T19:39:01;-0.10;99.90
35668;DHT22;22158;59.280;17.806;2023-04-04T19:41:38;-0.10;99.90
35668;DHT22;22158;59.280;17.806;2023-04-04T19:44:05;-0.10;99.90
35668;DHT22;22158;59.280;17.806;2023-04-04T19:46:36;-0.20;99.90
35668;DHT22;22158;59.280;17.806;2023-04-04T19:49:12;-0.20;99.90
35668;DHT22;22158;59.280;17.806;2023-04-04T19:51:40;-0.30;99.90
35668;DHT22;22158;59.280;17.806;2023-04-04T19:54:10;-0.30;99.90
35668;DHT22;22158;59.280;17.806;2023-04-04T19:56:36;-0.40;99.90
35668;DHT22;22158;59.280;17.806;2023-04-04T19:59:03;-0.40;99.90
35668;DHT22;22158;59.280;17.806;2023-04-04T20:01:30;-0.50;99.90
35668;DHT22;22158;59.280;17.806;2023-04-04T20:04:06;-0.50;99.90
35668;DHT22;22158;59.280;17.806;2023-04-04T20:06:33;-0.50;99.90
35668;DHT22;22158;59.280;17.806;2023-04-04T20:09:31;-0.60;99.90
35668;DHT22;22158;59.280;17.806;2023-04-04T20:11:58;-0.60;99.90
35668;DHT22;22158;59.280;17.806;2023-04-04T20:14:24;-0.60;99.90
35668;DHT22;22158;59.280;17.806;2023-04-04T20:16:50;-0.70;99.90
35668;DHT22;22158;59.280;17.806;2023-04-04T20:19:18;-0.70;99.90
35668;DHT22;22158;59.280;17.806;2023-04-04T20:21:44;-0.80;99.90
35668;DHT22;22158;59.280;17.806;2023-04-04T20:24:10;-0.80;99.90
35668;DHT22;22158;59.280;17.806;2023-04-04T20:29:30;-0.90;99.90
35668;DHT22;22158;59.280;17.806;2023-04-04T20:32:00;-0.90;99.90
35668;DHT22;22158;59.280;17.806;2023-04-04T20:34:40;-1.00;99.90
35668;DHT22;22158;59.280;17.806;2023-04-04T20:37:23;-1.00;99.90
35668;DHT22;22158;59.280;17.806;2023-04-04T20:44:50;-1.10;99.90
35668;DHT22;22158;59.280;17.806;2023-04-04T20:52:46;-1.30;99.90
35668;DHT22;22158;59.280;17.806;2023-04-04T20:55:12;-1.30;99.90
35668;DHT22;22158;59.280;17.806;2023-04-04T20:57:37;-1.30;99.90